createdAt,value
2023-04-27T00:00:09.271Z,2634.00
2023-04-27T00:01:09.330Z,2648.00
2023-04-27T00:02:09.405Z,2653.00
2023-04-27T00:03:09.900Z,2632.00
2023-04-27T00:04:09.840Z,2627.00
2023-04-27T00:05:09.722Z,2634.00
2023-04-27T00:06:09.700Z,2632.00
2023-04-27T00:07:09.688Z,2638.00
2023-04-27T00:08:09.744Z,2638.00
2023-04-27T00:09:09.834Z,2621.00
2023-04-27T00:10:09.838Z,2626.00
2023-04-27T00:11:09.916Z,2618.00
2023-04-27T00:12:09.945Z,2605.00
2023-04-27T00:13:10.041Z,2615.00
2023-04-27T00:14:10.086Z,2622.00
2023-04-27T00:15:10.118Z,2613.00
2023-04-27T00:16:10.232Z,2596.00
2023-04-27T00:17:10.260Z,2596.00
2023-04-27T00:18:10.328Z,2594.00
2023-04-27T00:19:10.348Z,2612.00
2023-04-27T00:20:10.418Z,2606.00
2023-04-27T00:21:10.444Z,2603.00
2023-04-27T00:22:10.556Z,2592.00
2023-04-27T00:23:10.606Z,2585.00
2023-04-27T00:24:10.654Z,2591.00
2023-04-27T00:25:10.702Z,2589.00
2023-04-27T00:26:10.790Z,2589.00
2023-04-27T00:27:10.845Z,2574.00
2023-04-27T00:28:10.875Z,2577.00
2023-04-27T00:29:11.002Z,2573.00
2023-04-27T00:30:11.019Z,2570.00
2023-04-27T00:31:11.071Z,2570.00
2023-04-27T00:32:11.187Z,2570.00
2023-04-27T00:33:11.192Z,2574.00
2023-04-27T00:34:11.237Z,2562.00
2023-04-27T00:35:11.322Z,2569.00
2023-04-27T00:36:11.394Z,2558.00
2023-04-27T00:37:11.426Z,2548.00
2023-04-27T00:38:11.522Z,2564.00
2023-04-27T00:39:11.716Z,2549.00
2023-04-27T00:40:11.653Z,2553.00
2023-04-27T00:41:11.699Z,2548.00
2023-04-27T00:42:11.736Z,2552.00
2023-04-27T00:43:11.813Z,2547.00
2023-04-27T00:44:11.842Z,2539.00
2023-04-27T00:45:11.904Z,2546.00
2023-04-27T00:46:12.008Z,2544.00
2023-04-27T00:47:12.039Z,2529.00
2023-04-27T00:48:12.117Z,2525.00
2023-04-27T00:49:12.371Z,2528.00
2023-04-27T00:50:12.217Z,2535.00
2023-04-27T00:51:12.243Z,2519.00
2023-04-27T00:52:12.302Z,2521.00
2023-04-27T00:53:12.656Z,2513.00
2023-04-27T00:54:12.430Z,2521.00
2023-04-27T00:55:12.496Z,2524.00
2023-04-27T00:56:12.518Z,2519.00
2023-04-27T00:57:12.657Z,2516.00
2023-04-27T00:58:12.650Z,2511.00
2023-04-27T00:59:12.933Z,2509.00
2023-04-27T01:00:12.769Z,2503.00
2023-04-27T01:01:12.921Z,2502.00
2023-04-27T01:02:12.945Z,2506.00
2023-04-27T01:03:13.085Z,2501.00
2023-04-27T01:04:13.141Z,2507.00
2023-04-27T01:05:13.080Z,2504.00
2023-04-27T01:06:13.114Z,2505.00
2023-04-27T01:07:13.203Z,2492.00
2023-04-27T01:08:13.263Z,2483.00
2023-04-27T01:09:13.570Z,2497.00
2023-04-27T01:10:13.395Z,2494.00
2023-04-27T01:11:13.440Z,2480.00
2023-04-27T01:12:13.502Z,2490.00
2023-04-27T01:13:13.581Z,2485.00
2023-04-27T01:14:13.638Z,2484.00
2023-04-27T01:15:13.676Z,2485.00
2023-04-27T01:16:13.792Z,2487.00
2023-04-27T01:17:13.805Z,2467.00
2023-04-27T01:18:13.892Z,2475.00
2023-04-27T01:19:14.176Z,2471.00
2023-04-27T01:20:14.006Z,2472.00
2023-04-27T01:21:14.075Z,2470.00
2023-04-27T01:22:14.119Z,2464.00
2023-04-27T01:23:16.623Z,2461.00
2023-04-27T01:24:14.209Z,2467.00
2023-04-27T01:25:14.166Z,2463.00
2023-04-27T01:26:14.137Z,2458.00
2023-04-27T01:27:14.158Z,2455.00
2023-04-27T01:28:14.148Z,2457.00
2023-04-27T01:29:14.319Z,2450.00
2023-04-27T01:30:14.147Z,2441.00
2023-04-27T01:31:14.159Z,2445.00
2023-04-27T01:32:14.101Z,2450.00
2023-04-27T01:33:14.107Z,2443.00
2023-04-27T01:34:14.095Z,2441.00
2023-04-27T01:35:14.089Z,2435.00
2023-04-27T01:36:14.065Z,2433.00
2023-04-27T01:37:14.048Z,2439.00
2023-04-27T01:38:14.088Z,2429.00
2023-04-27T01:39:14.431Z,2427.00
2023-04-27T01:40:14.056Z,2417.00
2023-04-27T01:41:14.069Z,2424.00
2023-04-27T01:42:14.063Z,2421.00
2023-04-27T01:43:14.020Z,2426.00
2023-04-27T01:44:14.041Z,2420.00
2023-04-27T01:45:14.013Z,2412.00
2023-04-27T01:46:14.045Z,2411.00
2023-04-27T01:47:14.008Z,2412.00
2023-04-27T01:48:14.036Z,2418.00
2023-04-27T01:49:14.128Z,2412.00
2023-04-27T01:50:13.998Z,2404.00
2023-04-27T01:51:14.007Z,2413.00
2023-04-27T01:52:13.954Z,2405.00
2023-04-27T01:53:13.961Z,2404.00
2023-04-27T01:54:13.980Z,2391.00
2023-04-27T01:55:13.943Z,2391.00
2023-04-27T01:56:13.934Z,2388.00
2023-04-27T01:57:13.972Z,2391.00
2023-04-27T01:58:13.983Z,2393.00
2023-04-27T01:59:14.289Z,2392.00
2023-04-27T02:00:14.099Z,2377.00
2023-04-27T02:01:14.197Z,2374.00
2023-04-27T02:02:14.242Z,2387.00
2023-04-27T02:03:14.384Z,2390.00
2023-04-27T02:04:14.476Z,2377.00
2023-04-27T02:05:14.454Z,2382.00
2023-04-27T02:06:14.486Z,2372.00
2023-04-27T02:07:14.534Z,2373.00
2023-04-27T02:08:14.635Z,2365.00
2023-04-27T02:09:14.874Z,2369.00
2023-04-27T02:10:14.715Z,2373.00
2023-04-27T02:11:14.773Z,2379.00
2023-04-27T02:12:14.813Z,2356.00
2023-04-27T02:13:14.877Z,2358.00
2023-04-27T02:14:14.972Z,2355.00
2023-04-27T02:15:14.993Z,2364.00
2023-04-27T02:16:15.122Z,2365.00
2023-04-27T02:17:15.154Z,2350.00
2023-04-27T02:18:15.202Z,2352.00
2023-04-27T02:19:15.549Z,2353.00
2023-04-27T02:20:15.298Z,2348.00
2023-04-27T02:21:15.353Z,2346.00
2023-04-27T02:22:15.446Z,2351.00
2023-04-27T02:23:15.503Z,2329.00
2023-04-27T02:24:15.557Z,2335.00
2023-04-27T02:25:15.603Z,2324.00
2023-04-27T02:26:15.692Z,2339.00
2023-04-27T02:27:15.756Z,2332.00
2023-04-27T02:28:15.814Z,2344.00
2023-04-27T02:29:16.074Z,2333.00
2023-04-27T02:30:15.999Z,2333.00
2023-04-27T02:31:16.064Z,2317.00
2023-04-27T02:32:16.083Z,2323.00
2023-04-27T02:33:16.143Z,2304.00
2023-04-27T02:34:16.184Z,2322.00
2023-04-27T02:35:16.228Z,2323.00
2023-04-27T02:36:16.304Z,2299.00
2023-04-27T02:37:16.386Z,2326.00
2023-04-27T02:38:16.454Z,2306.00
2023-04-27T02:39:16.575Z,2319.00
2023-04-27T02:40:16.568Z,2308.00
2023-04-27T02:41:16.612Z,2316.00
2023-04-27T02:42:16.681Z,2295.00
2023-04-27T02:43:16.718Z,2296.00
2023-04-27T02:44:16.795Z,2303.00
2023-04-27T02:45:16.881Z,2293.00
2023-04-27T02:46:16.976Z,2302.00
2023-04-27T02:47:16.995Z,2289.00
2023-04-27T02:48:17.040Z,2291.00
2023-04-27T02:49:17.109Z,2273.00
2023-04-27T02:50:17.160Z,2293.00
2023-04-27T02:51:17.220Z,2286.00
2023-04-27T02:52:17.284Z,2278.00
2023-04-27T02:53:17.328Z,2283.00
2023-04-27T02:54:17.418Z,2278.00
2023-04-27T02:55:17.441Z,2293.00
2023-04-27T02:56:17.505Z,2287.00
2023-04-27T02:57:17.600Z,2264.00
2023-04-27T02:58:17.631Z,2267.00
2023-04-27T02:59:17.717Z,2269.00
2023-04-27T03:00:17.741Z,2267.00
2023-04-27T03:01:17.859Z,2258.00
2023-04-27T03:02:17.962Z,2259.00
2023-04-27T03:03:18.095Z,2271.00
2023-04-27T03:04:18.159Z,2260.00
2023-04-27T03:05:18.061Z,2253.00
2023-04-27T03:06:18.109Z,2261.00
2023-04-27T03:07:18.189Z,2251.00
2023-04-27T03:08:18.249Z,2253.00
2023-04-27T03:09:18.323Z,2243.00
2023-04-27T03:10:18.358Z,2252.00
2023-04-27T03:11:18.462Z,2253.00
2023-04-27T03:12:18.674Z,2247.00
2023-04-27T03:13:18.535Z,2234.00
2023-04-27T03:14:18.593Z,2237.00
2023-04-27T03:15:18.688Z,2236.00
2023-04-27T03:16:18.813Z,2235.00
2023-04-27T03:17:18.803Z,2237.00
2023-04-27T03:18:18.850Z,2232.00
2023-04-27T03:19:18.889Z,2238.00
2023-04-27T03:20:18.953Z,2225.00
2023-04-27T03:21:19.042Z,2234.00
2023-04-27T03:22:19.085Z,2232.00
2023-04-27T03:23:19.143Z,2228.00
2023-04-27T03:24:19.170Z,2216.00
2023-04-27T03:25:19.227Z,2218.00
2023-04-27T03:26:19.293Z,2218.00
2023-04-27T03:27:19.381Z,2212.00
2023-04-27T03:28:19.400Z,2213.00
2023-04-27T03:29:19.457Z,2209.00
2023-04-27T03:30:19.534Z,2216.00
2023-04-27T03:31:19.660Z,2209.00
2023-04-27T03:32:19.648Z,2199.00
2023-04-27T03:33:19.746Z,2202.00
2023-04-27T03:34:19.787Z,2205.00
2023-04-27T03:35:19.824Z,2210.00
2023-04-27T03:36:19.869Z,2190.00
2023-04-27T03:37:19.946Z,2185.00
2023-04-27T03:38:20.029Z,2199.00
2023-04-27T03:39:20.065Z,2194.00
2023-04-27T03:40:20.105Z,2198.00
2023-04-27T03:41:20.148Z,2204.00
2023-04-27T03:42:20.193Z,2187.00
2023-04-27T03:43:20.252Z,2191.00
2023-04-27T03:44:20.282Z,2184.00
2023-04-27T03:45:20.325Z,2198.00
2023-04-27T03:46:20.439Z,2183.00
2023-04-27T03:47:20.475Z,2184.00
2023-04-27T03:48:20.508Z,2182.00
2023-04-27T03:49:20.542Z,2178.00
2023-04-27T03:50:20.578Z,2167.00
2023-04-27T03:51:20.659Z,2185.00
2023-04-27T03:52:20.745Z,2178.00
2023-04-27T03:53:20.764Z,2169.00
2023-04-27T03:54:20.842Z,2157.00
2023-04-27T03:55:20.875Z,2155.00
2023-04-27T03:56:20.947Z,2159.00
2023-04-27T03:57:21.019Z,2167.00
2023-04-27T03:58:21.048Z,2156.00
2023-04-27T03:59:21.054Z,2150.00
2023-04-27T04:00:21.108Z,2149.00
2023-04-27T04:01:21.111Z,2150.00
2023-04-27T04:02:21.248Z,2128.00
2023-04-27T04:03:21.626Z,2138.00
2023-04-27T04:04:21.378Z,2152.00
2023-04-27T04:05:21.376Z,2142.00
2023-04-27T04:06:21.349Z,2145.00
2023-04-27T04:07:21.439Z,2134.00
2023-04-27T04:08:21.467Z,2137.00
2023-04-27T04:09:23.837Z,2143.00
2023-04-27T04:10:21.662Z,2147.00
2023-04-27T04:11:21.738Z,2151.00
2023-04-27T04:12:21.803Z,2124.00
2023-04-27T04:13:21.817Z,2122.00
2023-04-27T04:14:21.862Z,2116.00
2023-04-27T04:15:21.921Z,2126.00
2023-04-27T04:16:21.993Z,2114.00
2023-04-27T04:17:22.032Z,2120.00
2023-04-27T04:18:22.026Z,2107.00
2023-04-27T04:19:22.268Z,2113.00
2023-04-27T04:20:22.096Z,2124.00
2023-04-27T04:21:22.166Z,2111.00
2023-04-27T04:22:22.206Z,2110.00
2023-04-27T04:23:22.257Z,2106.00
2023-04-27T04:24:22.267Z,2115.00
2023-04-27T04:25:22.326Z,2118.00
2023-04-27T04:26:22.381Z,2099.00
2023-04-27T04:27:22.457Z,2110.00
2023-04-27T04:28:22.415Z,2108.00
2023-04-27T04:29:22.472Z,2089.00
2023-04-27T04:30:22.516Z,2104.00
2023-04-27T04:31:22.556Z,2104.00
2023-04-27T04:32:22.668Z,2089.00
2023-04-27T04:33:22.641Z,2094.00
2023-04-27T04:34:22.700Z,2082.00
2023-04-27T04:35:22.704Z,2083.00
2023-04-27T04:36:22.778Z,2082.00
2023-04-27T04:37:22.793Z,2080.00
2023-04-27T04:38:22.811Z,2080.00
2023-04-27T04:39:22.826Z,2086.00
2023-04-27T04:40:22.864Z,2081.00
2023-04-27T04:41:22.890Z,2087.00
2023-04-27T04:42:23.723Z,2078.00
2023-04-27T04:43:22.949Z,2080.00
2023-04-27T04:44:22.984Z,2081.00
2023-04-27T04:45:23.036Z,2069.00
2023-04-27T04:46:23.080Z,2065.00
2023-04-27T04:47:23.137Z,2067.00
2023-04-27T04:48:23.096Z,2071.00
2023-04-27T04:49:23.119Z,2080.00
2023-04-27T04:50:23.168Z,2076.00
2023-04-27T04:51:23.202Z,2081.00
2023-04-27T04:52:23.248Z,2087.00
2023-04-27T04:53:23.259Z,2076.00
2023-04-27T04:54:23.296Z,2083.00
2023-04-27T04:55:23.330Z,2079.00
2023-04-27T04:56:23.367Z,2068.00
2023-04-27T04:57:23.360Z,2073.00
2023-04-27T04:58:23.394Z,2080.00
2023-04-27T04:59:23.423Z,2077.00
2023-04-27T05:00:23.472Z,2084.00
2023-04-27T05:01:23.539Z,2067.00
2023-04-27T05:02:23.619Z,2066.00
2023-04-27T05:03:23.653Z,2075.00
2023-04-27T05:04:23.706Z,2092.00
2023-04-27T05:05:23.627Z,2079.00
2023-04-27T05:06:23.547Z,2074.00
2023-04-27T05:07:25.016Z,2069.00
2023-04-27T05:08:23.625Z,2086.00
2023-04-27T05:09:23.604Z,2061.00
2023-04-27T05:10:23.651Z,2064.00
2023-04-27T05:11:23.670Z,2087.00
2023-04-27T05:12:23.755Z,2075.00
2023-04-27T05:13:23.754Z,2078.00
2023-04-27T05:14:23.801Z,2081.00
2023-04-27T05:15:23.822Z,2062.00
2023-04-27T05:16:23.891Z,2088.00
2023-04-27T05:17:23.912Z,2083.00
2023-04-27T05:18:23.890Z,2082.00
2023-04-27T05:19:23.933Z,2068.00
2023-04-27T05:20:23.950Z,2069.00
2023-04-27T05:21:23.955Z,2062.00
2023-04-27T05:22:23.984Z,2067.00
2023-04-27T05:23:23.985Z,2059.00
2023-04-27T05:24:23.976Z,2079.00
2023-04-27T05:25:23.969Z,2076.00
2023-04-27T05:26:24.006Z,2076.00
2023-04-27T05:27:24.019Z,2075.00
2023-04-27T05:28:24.031Z,2086.00
2023-04-27T05:29:24.068Z,2068.00
2023-04-27T05:30:24.127Z,2077.00
2023-04-27T05:31:24.214Z,2080.00
2023-04-27T05:32:24.222Z,2080.00
2023-04-27T05:33:24.157Z,2070.00
2023-04-27T05:34:24.249Z,2072.00
2023-04-27T05:35:24.247Z,2086.00
2023-04-27T05:36:24.294Z,2088.00
2023-04-27T05:37:24.336Z,2103.00
2023-04-27T05:38:24.296Z,2126.00
2023-04-27T05:39:24.361Z,2109.00
2023-04-27T05:40:24.410Z,2142.00
2023-04-27T05:41:24.459Z,2146.00
2023-04-27T05:42:24.751Z,2155.00
2023-04-27T05:43:24.505Z,2179.00
2023-04-27T05:44:24.554Z,2157.00
2023-04-27T05:45:24.622Z,2179.00
2023-04-27T05:46:24.740Z,2223.00
2023-04-27T05:47:24.756Z,2353.00
2023-04-27T05:48:25.269Z,2309.00
2023-04-27T05:49:24.960Z,2331.00
2023-04-27T05:50:24.936Z,2354.00
2023-04-27T05:51:24.983Z,2380.00
2023-04-27T05:52:25.028Z,2433.00
2023-04-27T05:53:25.302Z,2536.00
2023-04-27T05:54:25.165Z,2551.00
2023-04-27T05:55:25.182Z,2589.00
2023-04-27T05:56:25.250Z,2686.00
2023-04-27T05:57:25.284Z,2720.00
2023-04-27T05:58:25.304Z,2767.00
2023-04-27T05:59:25.342Z,2756.00
2023-04-27T06:00:25.405Z,2668.00
2023-04-27T06:01:25.398Z,2554.00
2023-04-27T06:02:25.668Z,2702.00
2023-04-27T06:03:25.580Z,2593.00
2023-04-27T06:04:25.707Z,2546.00
2023-04-27T06:05:25.579Z,2565.00
2023-04-27T06:06:25.610Z,2544.00
2023-04-27T06:07:25.664Z,2565.00
2023-04-27T06:08:25.823Z,2574.00
2023-04-27T06:09:25.792Z,2579.00
2023-04-27T06:10:25.888Z,2575.00
2023-04-27T06:11:25.910Z,2542.00
2023-04-27T06:12:25.958Z,2568.00
2023-04-27T06:13:26.025Z,2512.00
2023-04-27T06:14:26.084Z,2534.00
2023-04-27T06:15:26.104Z,2518.00
2023-04-27T06:16:26.266Z,2501.00
2023-04-27T06:17:26.257Z,2477.00
2023-04-27T06:18:26.325Z,2481.00
2023-04-27T06:19:26.365Z,2476.00
2023-04-27T06:20:26.440Z,2473.00
2023-04-27T06:21:26.529Z,2478.00
2023-04-27T06:22:26.571Z,2460.00
2023-04-27T06:23:26.632Z,2458.00
2023-04-27T06:24:26.691Z,2481.00
2023-04-27T06:25:27.379Z,3194.00
2023-04-27T06:26:26.794Z,2737.00
2023-04-27T06:27:26.872Z,2632.00
2023-04-27T06:28:26.932Z,2623.00
2023-04-27T06:29:26.986Z,2544.00
2023-04-27T06:30:27.060Z,2505.00
2023-04-27T06:31:27.168Z,2443.00
2023-04-27T06:32:27.186Z,2439.00
2023-04-27T06:33:27.210Z,2428.00
2023-04-27T06:34:27.301Z,2487.00
2023-04-27T06:35:27.330Z,2521.00
2023-04-27T06:36:27.406Z,2483.00
2023-04-27T06:37:27.451Z,2544.00
2023-04-27T06:38:27.511Z,2526.00
2023-04-27T06:39:27.584Z,2508.00
2023-04-27T06:40:27.727Z,2509.00
2023-04-27T06:41:27.688Z,2510.00
2023-04-27T06:42:27.733Z,2547.00
2023-04-27T06:43:27.813Z,2584.00
2023-04-27T06:44:27.872Z,2567.00
2023-04-27T06:45:28.051Z,2558.00
2023-04-27T06:46:28.017Z,2502.00
2023-04-27T06:47:27.957Z,2417.00
2023-04-27T06:48:28.276Z,2413.00
2023-04-27T06:49:28.009Z,2387.00
2023-04-27T06:50:28.115Z,2312.00
2023-04-27T06:51:28.096Z,2278.00
2023-04-27T06:52:28.083Z,2227.00
2023-04-27T06:53:28.131Z,2189.00
2023-04-27T06:54:28.233Z,2246.00
2023-04-27T06:55:28.240Z,2340.00
2023-04-27T06:56:28.291Z,2340.00
2023-04-27T06:57:28.414Z,2385.00
2023-04-27T06:58:28.298Z,2416.00
2023-04-27T06:59:28.415Z,2467.00
2023-04-27T07:00:28.518Z,2496.00
2023-04-27T07:01:28.552Z,2553.00
2023-04-27T07:02:28.452Z,2600.00
2023-04-27T07:03:28.494Z,2595.00
2023-04-27T07:04:28.543Z,2613.00
2023-04-27T07:05:28.505Z,2651.00
2023-04-27T07:06:28.579Z,2668.00
2023-04-27T07:07:28.643Z,2721.00
2023-04-27T07:08:28.657Z,2775.00
2023-04-27T07:09:28.894Z,2822.00
2023-04-27T07:10:28.690Z,2819.00
2023-04-27T07:11:28.723Z,2824.00
2023-04-27T07:12:28.708Z,2883.00
2023-04-27T07:13:28.783Z,2916.00
2023-04-27T07:14:28.738Z,2930.00
2023-04-27T07:15:28.762Z,2901.00
2023-04-27T07:16:28.824Z,2940.00
2023-04-27T07:17:28.848Z,2923.00
2023-04-27T07:18:28.895Z,2958.00
2023-04-27T07:19:28.845Z,2986.00
2023-04-27T07:20:28.834Z,2965.00
2023-04-27T07:21:28.803Z,2993.00
2023-04-27T07:22:28.874Z,3031.00
2023-04-27T07:23:28.818Z,3026.00
2023-04-27T07:24:28.842Z,3030.00
2023-04-27T07:25:28.823Z,3042.00
2023-04-27T07:26:28.810Z,3094.00
2023-04-27T07:27:28.835Z,3123.00
2023-04-27T07:28:28.829Z,3117.00
2023-04-27T07:29:29.192Z,3114.00
2023-04-27T07:30:28.818Z,3140.00
2023-04-27T07:31:28.940Z,3177.00
2023-04-27T07:32:28.980Z,3216.00
2023-04-27T07:33:29.294Z,3221.00
2023-04-27T07:34:35.056Z,3240.00
2023-04-27T07:35:30.035Z,3241.00
2023-04-27T07:36:29.065Z,3242.00
2023-04-27T07:37:29.014Z,3244.00
2023-04-27T07:38:29.034Z,3258.00
2023-04-27T07:39:28.999Z,3298.00
2023-04-27T07:40:28.987Z,3369.00
2023-04-27T07:41:28.984Z,3371.00
2023-04-27T07:42:28.974Z,3397.00
2023-04-27T07:43:29.310Z,3384.00
2023-04-27T07:44:28.999Z,3381.00
2023-04-27T07:45:29.136Z,3395.00
2023-04-27T07:46:29.084Z,3405.00
2023-04-27T07:47:29.159Z,3403.00
2023-04-27T07:48:29.360Z,3397.00
2023-04-27T07:49:29.210Z,3407.00
2023-04-27T07:50:29.211Z,3418.00
2023-04-27T07:51:29.231Z,3413.00
2023-04-27T07:52:29.189Z,3404.00
2023-04-27T07:53:29.204Z,3410.00
2023-04-27T07:54:29.187Z,3385.00
2023-04-27T07:55:29.194Z,3386.00
2023-04-27T07:56:29.211Z,3379.00
2023-04-27T07:57:29.205Z,3407.00
2023-04-27T07:58:29.190Z,3425.00
2023-04-27T07:59:29.187Z,3379.00
2023-04-27T08:00:29.190Z,3419.00
2023-04-27T08:01:29.229Z,3366.00
2023-04-27T08:02:29.361Z,3362.00
2023-04-27T08:03:29.521Z,3391.00
2023-04-27T08:04:29.717Z,3389.00
2023-04-27T08:05:29.892Z,3380.00
2023-04-27T08:06:29.811Z,3391.00
2023-04-27T08:07:29.427Z,3363.00
2023-04-27T08:08:29.822Z,3381.00
2023-04-27T08:09:29.371Z,3345.00
2023-04-27T08:10:29.374Z,3360.00
2023-04-27T08:11:29.406Z,3349.00
2023-04-27T08:12:29.424Z,3345.00
2023-04-27T08:13:29.855Z,3337.00
2023-04-27T08:14:29.485Z,3305.00
2023-04-27T08:15:29.533Z,3340.00
2023-04-27T08:16:29.604Z,3347.00
2023-04-27T08:17:29.579Z,3320.00
2023-04-27T08:18:29.586Z,3308.00
2023-04-27T08:19:29.617Z,3305.00
2023-04-27T08:20:29.629Z,3281.00
2023-04-27T08:21:29.670Z,3275.00
2023-04-27T08:22:29.710Z,3269.00
2023-04-27T08:23:29.714Z,3274.00
2023-04-27T08:24:29.729Z,3263.00
2023-04-27T08:25:29.791Z,3277.00
2023-04-27T08:26:29.828Z,3275.00
2023-04-27T08:27:29.847Z,3278.00
2023-04-27T08:28:29.868Z,3263.00
2023-04-27T08:29:30.014Z,3262.00
2023-04-27T08:30:29.918Z,3289.00
2023-04-27T08:31:29.987Z,3312.00
2023-04-27T08:32:29.957Z,3288.00
2023-04-27T08:33:29.957Z,3294.00
2023-04-27T08:34:30.020Z,3309.00
2023-04-27T08:35:30.027Z,3302.00
2023-04-27T08:36:30.054Z,3274.00
2023-04-27T08:37:30.054Z,3284.00
2023-04-27T08:38:30.311Z,3317.00
2023-04-27T08:39:30.111Z,3286.00
2023-04-27T08:40:30.123Z,3157.00
2023-04-27T08:41:30.140Z,2850.00
2023-04-27T08:42:30.210Z,2696.00
2023-04-27T08:43:30.253Z,2417.00
2023-04-27T08:44:30.256Z,2294.00
2023-04-27T08:45:30.267Z,2292.00
2023-04-27T08:46:30.295Z,2184.00
2023-04-27T08:47:41.815Z,2053.00
2023-04-27T08:48:31.361Z,2022.00
2023-04-27T08:49:30.377Z,1940.00
2023-04-27T08:50:30.335Z,1919.00
2023-04-27T08:51:30.345Z,1887.00
2023-04-27T08:52:30.349Z,1687.00
2023-04-27T08:53:30.329Z,1745.00
2023-04-27T08:54:30.343Z,1731.00
2023-04-27T08:55:30.297Z,1657.00
2023-04-27T08:56:30.305Z,1798.00
2023-04-27T08:57:30.317Z,1981.00
2023-04-27T08:58:30.332Z,2178.00
2023-04-27T08:59:30.287Z,2184.00
2023-04-27T09:00:30.276Z,2250.00
2023-04-27T09:01:30.323Z,2319.00
2023-04-27T09:02:30.371Z,2389.00
2023-04-27T09:03:30.450Z,2568.00
2023-04-27T09:04:30.391Z,2566.00
2023-04-27T09:05:30.376Z,2727.00
2023-04-27T09:06:30.405Z,2742.00
2023-04-27T09:07:30.387Z,2718.00
2023-04-27T09:08:30.421Z,2926.00
2023-04-27T09:09:30.445Z,2912.00
2023-04-27T09:10:30.479Z,2884.00
2023-04-27T09:11:30.469Z,2901.00
2023-04-27T09:12:30.526Z,2944.00
2023-04-27T09:13:30.535Z,2993.00
2023-04-27T09:14:30.550Z,3055.00
2023-04-27T09:15:30.526Z,3075.00
2023-04-27T09:16:30.540Z,3182.00
2023-04-27T09:17:30.766Z,3114.00
2023-04-27T09:18:30.581Z,3237.00
2023-04-27T09:19:30.612Z,3177.00
2023-04-27T09:20:30.674Z,3134.00
2023-04-27T09:21:30.778Z,3118.00
2023-04-27T09:22:30.764Z,3169.00
2023-04-27T09:23:30.866Z,3282.00
2023-04-27T09:24:30.929Z,3323.00
2023-04-27T09:25:30.938Z,3416.00
2023-04-27T09:26:30.993Z,3374.00
2023-04-27T09:27:31.032Z,3301.00
2023-04-27T09:28:31.156Z,3345.00
2023-04-27T09:29:31.130Z,3440.00
2023-04-27T09:30:31.158Z,3370.00
2023-04-27T09:31:31.205Z,3455.00
2023-04-27T09:32:31.202Z,3395.00
2023-04-27T09:33:31.199Z,3439.00
2023-04-27T09:34:31.226Z,3457.00
2023-04-27T09:35:31.202Z,3470.00
2023-04-27T09:36:31.223Z,3460.00
2023-04-27T09:37:31.234Z,3464.00
2023-04-27T09:38:31.266Z,3470.00
2023-04-27T09:39:31.389Z,3475.00
2023-04-27T09:40:31.434Z,3496.00
2023-04-27T09:41:31.292Z,3481.00
2023-04-27T09:42:31.346Z,3496.00
2023-04-27T09:43:31.401Z,3477.00
2023-04-27T09:44:31.886Z,3507.00
2023-04-27T09:45:31.488Z,3479.00
2023-04-27T09:46:31.504Z,3460.00
2023-04-27T09:47:31.547Z,3317.00
2023-04-27T09:48:31.537Z,3112.00
2023-04-27T09:49:31.880Z,3068.00
2023-04-27T09:50:31.675Z,3041.00
2023-04-27T09:51:31.737Z,2954.00
2023-04-27T09:52:31.792Z,2880.00
2023-04-27T09:53:31.850Z,2837.00
2023-04-27T09:54:31.929Z,2787.00
2023-04-27T09:55:32.049Z,2719.00
2023-04-27T09:56:32.035Z,2685.00
2023-04-27T09:57:32.086Z,2625.00
2023-04-27T09:58:32.108Z,2600.00
2023-04-27T09:59:32.387Z,2563.00
2023-04-27T10:00:32.173Z,2506.00
2023-04-27T10:01:32.262Z,2503.00
2023-04-27T10:02:35.088Z,2477.00
2023-04-27T10:03:33.243Z,2481.00
2023-04-27T10:04:32.382Z,2472.00
2023-04-27T10:05:32.141Z,2435.00
2023-04-27T10:06:32.162Z,2381.00
2023-04-27T10:07:32.146Z,2337.00
2023-04-27T10:08:32.146Z,2580.00
2023-04-27T10:09:32.145Z,2768.00
2023-04-27T10:10:32.134Z,2833.00
2023-04-27T10:11:32.095Z,2858.00
2023-04-27T10:12:32.141Z,2874.00
2023-04-27T10:13:32.127Z,2895.00
2023-04-27T10:14:32.214Z,2916.00
2023-04-27T10:15:32.264Z,2912.00
2023-04-27T10:16:32.351Z,2940.00
2023-04-27T10:17:32.454Z,2974.00
2023-04-27T10:18:32.441Z,2998.00
2023-04-27T10:19:32.477Z,2979.00
2023-04-27T10:20:32.536Z,2971.00
2023-04-27T10:21:32.572Z,2969.00
2023-04-27T10:22:32.658Z,3006.00
2023-04-27T10:23:32.687Z,3028.00
2023-04-27T10:24:32.734Z,3070.00
2023-04-27T10:25:32.790Z,3092.00
2023-04-27T10:26:33.605Z,3101.00
2023-04-27T10:27:32.827Z,3104.00
2023-04-27T10:28:32.855Z,3120.00
2023-04-27T10:29:32.890Z,3110.00
2023-04-27T10:30:33.078Z,3109.00
2023-04-27T10:31:33.042Z,3093.00
2023-04-27T10:32:33.061Z,3158.00
2023-04-27T10:33:33.023Z,3248.00
2023-04-27T10:34:33.374Z,3284.00
2023-04-27T10:35:33.091Z,3271.00
2023-04-27T10:36:33.150Z,3214.00
2023-04-27T10:37:33.167Z,3193.00
2023-04-27T10:38:33.198Z,3158.00
2023-04-27T10:39:47.165Z,3128.00
2023-04-27T10:40:34.211Z,3111.00
2023-04-27T10:41:33.237Z,3084.00
2023-04-27T10:42:33.202Z,3092.00
2023-04-27T10:43:33.204Z,3099.00
2023-04-27T10:44:33.163Z,3082.00
2023-04-27T10:45:33.216Z,3081.00
2023-04-27T10:46:33.253Z,3067.00
2023-04-27T10:47:33.227Z,3069.00
2023-04-27T10:48:33.206Z,3039.00
2023-04-27T10:49:33.154Z,3050.00
2023-04-27T10:50:33.160Z,3024.00
2023-04-27T10:51:33.125Z,3038.00
2023-04-27T10:52:33.131Z,3026.00
2023-04-27T10:53:33.138Z,2997.00
2023-04-27T10:54:33.208Z,2976.00
2023-04-27T10:55:33.239Z,2991.00
2023-04-27T10:56:33.313Z,2997.00
2023-04-27T10:57:33.347Z,2979.00
2023-04-27T10:58:48.265Z,2968.00
2023-04-27T10:59:34.406Z,2970.00
2023-04-27T11:00:33.411Z,2970.00
2023-04-27T11:01:33.384Z,2971.00
2023-04-27T11:02:33.455Z,2956.00
2023-04-27T11:03:33.525Z,2956.00
2023-04-27T11:04:33.389Z,2930.00
2023-04-27T11:05:33.439Z,2928.00
2023-04-27T11:06:33.335Z,2926.00
2023-04-27T11:07:33.356Z,2914.00
2023-04-27T11:08:33.329Z,2918.00
2023-04-27T11:09:33.343Z,2905.00
2023-04-27T11:10:33.341Z,2900.00
2023-04-27T11:11:33.358Z,2894.00
2023-04-27T11:12:33.327Z,2891.00
2023-04-27T11:13:33.294Z,2890.00
2023-04-27T11:14:33.274Z,2887.00
2023-04-27T11:15:33.271Z,2863.00
2023-04-27T11:16:33.316Z,2856.00
2023-04-27T11:17:33.357Z,2864.00
2023-04-27T11:18:33.270Z,2845.00
2023-04-27T11:19:33.239Z,2846.00
2023-04-27T11:20:33.218Z,2838.00
2023-04-27T11:21:40.256Z,2842.00
2023-04-27T11:22:33.224Z,2844.00
2023-04-27T11:23:33.223Z,2843.00
2023-04-27T11:24:33.202Z,2839.00
2023-04-27T11:25:33.181Z,2845.00
2023-04-27T11:26:33.205Z,2839.00
2023-04-27T11:27:33.174Z,2816.00
2023-04-27T11:28:33.174Z,2804.00
2023-04-27T11:29:34.540Z,2804.00
2023-04-27T11:30:33.170Z,2806.00
2023-04-27T11:31:33.206Z,2813.00
2023-04-27T11:32:33.169Z,2815.00
2023-04-27T11:33:33.157Z,2784.00
2023-04-27T11:34:40.487Z,2778.00
2023-04-27T11:35:33.127Z,2780.00
2023-04-27T11:36:33.121Z,2782.00
2023-04-27T11:37:33.086Z,2781.00
2023-04-27T11:38:33.148Z,2769.00
2023-04-27T11:39:33.082Z,2771.00
2023-04-27T11:40:33.080Z,2748.00
2023-04-27T11:41:33.079Z,2758.00
2023-04-27T11:42:33.061Z,2752.00
2023-04-27T11:43:33.089Z,2736.00
2023-04-27T11:44:33.093Z,2749.00
2023-04-27T11:45:33.058Z,2728.00
2023-04-27T11:46:33.062Z,2739.00
2023-04-27T11:47:33.072Z,2723.00
2023-04-27T11:48:33.043Z,2738.00
2023-04-27T11:49:33.036Z,2720.00
2023-04-27T11:50:33.001Z,2710.00
2023-04-27T11:51:33.017Z,2698.00
2023-04-27T11:52:33.003Z,2695.00
2023-04-27T11:53:33.002Z,2690.00
2023-04-27T11:54:33.071Z,2679.00
2023-04-27T11:55:33.119Z,2676.00
2023-04-27T11:56:33.172Z,2672.00
2023-04-27T11:57:33.253Z,2663.00
2023-04-27T11:58:33.258Z,2635.00
2023-04-27T11:59:33.322Z,2642.00
2023-04-27T12:00:33.382Z,2635.00
2023-04-27T12:01:38.216Z,2636.00
2023-04-27T12:02:34.506Z,2636.00
2023-04-27T12:03:33.664Z,2628.00
2023-04-27T12:04:33.549Z,2605.00
2023-04-27T12:05:33.489Z,2609.00